
<gpx xmlns="http://www.topografix.com/GPX/1/1" xmlns:gpxx="http://www.garmin.com/xmlschemas/GpxExtensions/v3" xmlns:wptx1="http://www.garmin.com/xmlschemas/WaypointExtension/v1" xmlns:xsi="http://www.w3.org/2001/XMLSchema-instance" version="1.1" creator="Adze - https://getadze.com/" xsi:schemaLocation="http://www.topografix.com/GPX/1/1 http://www.topografix.com/GPX/1/1/gpx.xsd http://www.garmin.com/xmlschemas/GpxExtensions/v3 http://www8.garmin.com/xmlschemas/GpxExtensionsv3.xsd http://www.garmin.com/xmlschemas/WaypointExtension/v1 http://www8.garmin.com/xmlschemas/WaypointExtensionv1.xsd">
    <metadata>
        <name>Untitled Document</name>
        <link href="http://www.garmin.com"></link>
        <time>2018-03-06T08:02:00.603Z</time>
    </metadata>
    <wpt lon="99.344177" lat="13.515409">
        <ele>108.000000</ele>
        <name>Pavothai Resort</name>
        <cmt>26-OCT-07 15:49:36</cmt>
        <desc>26-OCT-07 15:49:36</desc>
        <sym>Bar</sym>
        <type>user</type>
        <extensions>
            <gpxx:WaypointExtension>
                <gpxx:DisplayMode>SymbolOnly</gpxx:DisplayMode>
            </gpxx:WaypointExtension>
            <wptx1:WaypointExtension>
                <wptx1:DisplayMode>SymbolOnly</wptx1:DisplayMode>
            </wptx1:WaypointExtension>
        </extensions>
    </wpt>
    <trk>
        <name>October 2007 - Sunday</name>
        <extensions>
            <gpxx:TrackExtension>
                <gpxx:DisplayColor>Green</gpxx:DisplayColor>
            </gpxx:TrackExtension>
        </extensions>
        <trkseg>
            <trkpt lon="99.344213" lat="13.515317">
                <ele>120.302124</ele>
                <time>2007-10-28T02:58:27Z</time>
            </trkpt>
            <trkpt lon="99.344185" lat="13.515276">
                <ele>118.379395</ele>
                <time>2007-10-28T02:58:38Z</time>
            </trkpt>
            <trkpt lon="99.344057" lat="13.515080">
                <ele>114.534180</ele>
                <time>2007-10-28T02:58:48Z</time>
            </trkpt>
            <trkpt lon="99.344116" lat="13.514968">
                <ele>113.572998</ele>
                <time>2007-10-28T02:58:52Z</time>
            </trkpt>
            <trkpt lon="99.344485" lat="13.514764">
                <ele>112.611572</ele>
                <time>2007-10-28T02:59:06Z</time>
            </trkpt>
            <trkpt lon="99.344498" lat="13.514687">
                <ele>112.130981</ele>
                <time>2007-10-28T02:59:10Z</time>
            </trkpt>
            <trkpt lon="99.344174" lat="13.514557">
                <ele>115.014893</ele>
                <time>2007-10-28T02:59:22Z</time>
            </trkpt>
            <trkpt lon="99.344082" lat="13.514629">
                <ele>114.534180</ele>
                <time>2007-10-28T02:59:27Z</time>
            </trkpt>
            <trkpt lon="99.343833" lat="13.514941">
                <ele>113.092285</ele>
                <time>2007-10-28T02:59:36Z</time>
            </trkpt>
            <trkpt lon="99.343816" lat="13.515161">
                <ele>112.611572</ele>
                <time>2007-10-28T02:59:40Z</time>
            </trkpt>
            <trkpt lon="99.343922" lat="13.516030">
                <ele>113.572998</ele>
                <time>2007-10-28T03:00:00Z</time>
            </trkpt>
            <trkpt lon="99.344095" lat="13.516939">
                <ele>112.611572</ele>
                <time>2007-10-28T03:00:19Z</time>
            </trkpt>
            <trkpt lon="99.344281" lat="13.517931">
                <ele>113.572998</ele>
                <time>2007-10-28T03:00:41Z</time>
            </trkpt>
            <trkpt lon="99.344364" lat="13.518301">
                <ele>113.572998</ele>
                <time>2007-10-28T03:00:49Z</time>
            </trkpt>
            <trkpt lon="99.344360" lat="13.518453">
                <ele>113.092285</ele>
                <time>2007-10-28T03:00:53Z</time>
            </trkpt>
            <trkpt lon="99.344404" lat="13.518948">
                <ele>113.572998</ele>
                <time>2007-10-28T03:01:04Z</time>
            </trkpt>
            <trkpt lon="99.344407" lat="13.518502">
                <ele>112.611572</ele>
                <time>2007-10-28T03:01:11Z</time>
            </trkpt>
            <trkpt lon="99.344422" lat="13.518537">
                <ele>112.611572</ele>
                <time>2007-10-28T03:01:12Z</time>
            </trkpt>
            <trkpt lon="99.344617" lat="13.518694">
                <ele>112.611572</ele>
                <time>2007-10-28T03:01:16Z</time>
            </trkpt>
            <trkpt lon="99.344872" lat="13.518827">
                <ele>111.650269</ele>
                <time>2007-10-28T03:01:21Z</time>
            </trkpt>
            <trkpt lon="99.345033" lat="13.519004">
                <ele>110.688843</ele>
                <time>2007-10-28T03:01:25Z</time>
            </trkpt>
            <trkpt lon="99.345733" lat="13.519644">
                <ele>111.169556</ele>
                <time>2007-10-28T03:01:42Z</time>
            </trkpt>
            <trkpt lon="99.346451" lat="13.520266">
                <ele>112.130981</ele>
                <time>2007-10-28T03:02:02Z</time>
            </trkpt>
            <trkpt lon="99.346671" lat="13.520408">
                <ele>114.053589</ele>
                <time>2007-10-28T03:02:08Z</time>
            </trkpt>
            <trkpt lon="99.346773" lat="13.520495">
                <ele>114.053589</ele>
                <time>2007-10-28T03:02:11Z</time>
            </trkpt>
            <trkpt lon="99.346858" lat="13.520556">
                <ele>114.053589</ele>
                <time>2007-10-28T03:02:13Z</time>
            </trkpt>
            <trkpt lon="99.346937" lat="13.520626">
                <ele>113.572998</ele>
                <time>2007-10-28T03:02:15Z</time>
            </trkpt>
            <trkpt lon="99.347012" lat="13.520682">
                <ele>114.053589</ele>
                <time>2007-10-28T03:02:17Z</time>
            </trkpt>
            <trkpt lon="99.347661" lat="13.521180">
                <ele>115.495605</ele>
                <time>2007-10-28T03:02:33Z</time>
            </trkpt>
            <trkpt lon="99.348098" lat="13.521801">
                <ele>116.937500</ele>
                <time>2007-10-28T03:02:48Z</time>
            </trkpt>
            <trkpt lon="99.348273" lat="13.522104">
                <ele>115.976196</ele>
                <time>2007-10-28T03:02:55Z</time>
            </trkpt>
            <trkpt lon="99.348607" lat="13.522893">
                <ele>113.572998</ele>
                <time>2007-10-28T03:03:15Z</time>
            </trkpt>
            <trkpt lon="99.348888" lat="13.523200">
                <ele>113.092285</ele>
                <time>2007-10-28T03:03:29Z</time>
            </trkpt>
            <trkpt lon="99.349585" lat="13.523895">
                <ele>113.572998</ele>
                <time>2007-10-28T03:03:49Z</time>
            </trkpt>
            <trkpt lon="99.349620" lat="13.523929">
                <ele>114.053589</ele>
                <time>2007-10-28T03:03:50Z</time>
            </trkpt>
            <trkpt lon="99.349987" lat="13.524664">
                <ele>115.976196</ele>
                <time>2007-10-28T03:04:06Z</time>
            </trkpt>
            <trkpt lon="99.350579" lat="13.525545">
                <ele>115.495605</ele>
                <time>2007-10-28T03:04:24Z</time>
            </trkpt>
            <trkpt lon="99.350873" lat="13.525447">
                <ele>114.534180</ele>
                <time>2007-10-28T03:04:30Z</time>
            </trkpt>
            <trkpt lon="99.350968" lat="13.525372">
                <ele>114.053589</ele>
                <time>2007-10-28T03:04:32Z</time>
            </trkpt>
            <trkpt lon="99.351144" lat="13.525412">
                <ele>113.092285</ele>
                <time>2007-10-28T03:04:37Z</time>
            </trkpt>
            <trkpt lon="99.351356" lat="13.525596">
                <ele>112.611572</ele>
                <time>2007-10-28T03:04:44Z</time>
            </trkpt>
            <trkpt lon="99.351670" lat="13.525854">
                <ele>112.130981</ele>
                <time>2007-10-28T03:04:52Z</time>
            </trkpt>
            <trkpt lon="99.352316" lat="13.526172">
                <ele>111.169556</ele>
                <time>2007-10-28T03:05:07Z</time>
            </trkpt>
            <trkpt lon="99.352751" lat="13.526379">
                <ele>111.169556</ele>
                <time>2007-10-28T03:05:22Z</time>
            </trkpt>
            <trkpt lon="99.352909" lat="13.526476">
                <ele>113.092285</ele>
                <time>2007-10-28T03:05:57Z</time>
            </trkpt>
            <trkpt lon="99.353180" lat="13.526622">
                <ele>113.572998</ele>
                <time>2007-10-28T03:06:07Z</time>
            </trkpt>
            <trkpt lon="99.353181" lat="13.526601">
                <ele>113.092285</ele>
                <time>2007-10-28T03:06:16Z</time>
            </trkpt>
            <trkpt lon="99.353176" lat="13.526602">
                <ele>113.092285</ele>
                <time>2007-10-28T03:06:19Z</time>
            </trkpt>
            <trkpt lon="99.352857" lat="13.526448">
                <ele>114.534180</ele>
                <time>2007-10-28T03:06:30Z</time>
            </trkpt>
            <trkpt lon="99.352789" lat="13.526414">
                <ele>114.534180</ele>
                <time>2007-10-28T03:06:32Z</time>
            </trkpt>
            <trkpt lon="99.352525" lat="13.526731">
                <ele>113.572998</ele>
                <time>2007-10-28T03:06:45Z</time>
            </trkpt>
            <trkpt lon="99.352609" lat="13.526896">
                <ele>114.053589</ele>
                <time>2007-10-28T03:06:51Z</time>
            </trkpt>
            <trkpt lon="99.352969" lat="13.527496">
                <ele>118.860107</ele>
                <time>2007-10-28T03:07:11Z</time>
            </trkpt>
            <trkpt lon="99.353010" lat="13.527546">
                <ele>118.860107</ele>
                <time>2007-10-28T03:07:15Z</time>
            </trkpt>
            <trkpt lon="99.353050" lat="13.527569">
                <ele>118.860107</ele>
                <time>2007-10-28T03:07:18Z</time>
            </trkpt>
            <trkpt lon="99.353124" lat="13.527622">
                <ele>120.302124</ele>
                <time>2007-10-28T03:07:25Z</time>
            </trkpt>
            <trkpt lon="99.353366" lat="13.527853">
                <ele>118.379395</ele>
                <time>2007-10-28T03:07:46Z</time>
            </trkpt>
            <trkpt lon="99.353379" lat="13.527858">
                <ele>117.418213</ele>
                <time>2007-10-28T03:07:47Z</time>
            </trkpt>
            <trkpt lon="99.353370" lat="13.527965">
                <ele>117.418213</ele>
                <time>2007-10-28T03:07:53Z</time>
            </trkpt>
            <trkpt lon="99.353168" lat="13.528351">
                <ele>117.418213</ele>
                <time>2007-10-28T03:08:08Z</time>
            </trkpt>
            <trkpt lon="99.352811" lat="13.528890">
                <ele>119.340820</ele>
                <time>2007-10-28T03:08:25Z</time>
            </trkpt>
            <trkpt lon="99.352664" lat="13.529112">
                <ele>119.821411</ele>
                <time>2007-10-28T03:08:31Z</time>
            </trkpt>
            <trkpt lon="99.351968" lat="13.530087">
                <ele>121.744141</ele>
                <time>2007-10-28T03:08:53Z</time>
            </trkpt>
            <trkpt lon="99.352043" lat="13.530251">
                <ele>121.263550</ele>
                <time>2007-10-28T03:08:59Z</time>
            </trkpt>
            <trkpt lon="99.352693" lat="13.530555">
                <ele>120.302124</ele>
                <time>2007-10-28T03:09:15Z</time>
            </trkpt>
            <trkpt lon="99.353524" lat="13.530988">
                <ele>120.302124</ele>
                <time>2007-10-28T03:09:34Z</time>
            </trkpt>
            <trkpt lon="99.353773" lat="13.530702">
                <ele>120.302124</ele>
                <time>2007-10-28T03:09:46Z</time>
            </trkpt>
            <trkpt lon="99.354310" lat="13.530082">
                <ele>119.340820</ele>
                <time>2007-10-28T03:10:03Z</time>
            </trkpt>
            <trkpt lon="99.355021" lat="13.529295">
                <ele>115.976196</ele>
                <time>2007-10-28T03:10:20Z</time>
            </trkpt>
            <trkpt lon="99.355735" lat="13.528510">
                <ele>113.092285</ele>
                <time>2007-10-28T03:10:36Z</time>
            </trkpt>
            <trkpt lon="99.356087" lat="13.528263">
                <ele>113.092285</ele>
                <time>2007-10-28T03:10:43Z</time>
            </trkpt>
            <trkpt lon="99.356161" lat="13.528189">
                <ele>113.572998</ele>
                <time>2007-10-28T03:10:45Z</time>
            </trkpt>
            <trkpt lon="99.356267" lat="13.528115">
                <ele>113.572998</ele>
                <time>2007-10-28T03:10:48Z</time>
            </trkpt>
            <trkpt lon="99.355842" lat="13.528487">
                <ele>114.053589</ele>
                <time>2007-10-28T03:10:55Z</time>
            </trkpt>
            <trkpt lon="99.355838" lat="13.528483">
                <ele>115.495605</ele>
                <time>2007-10-28T03:11:01Z</time>
            </trkpt>
            <trkpt lon="99.357149" lat="13.528419">
                <ele>115.495605</ele>
                <time>2007-10-28T03:11:11Z</time>
            </trkpt>
            <trkpt lon="99.358266" lat="13.529069">
                <ele>115.014893</ele>
                <time>2007-10-28T03:11:45Z</time>
            </trkpt>
            <trkpt lon="99.358470" lat="13.529227">
                <ele>115.014893</ele>
                <time>2007-10-28T03:11:51Z</time>
            </trkpt>
            <trkpt lon="99.358437" lat="13.529372">
                <ele>115.014893</ele>
                <time>2007-10-28T03:11:55Z</time>
            </trkpt>
            <trkpt lon="99.358145" lat="13.530042">
                <ele>114.534180</ele>
                <time>2007-10-28T03:12:10Z</time>
            </trkpt>
            <trkpt lon="99.358084" lat="13.530160">
                <ele>114.534180</ele>
                <time>2007-10-28T03:12:13Z</time>
            </trkpt>
            <trkpt lon="99.357800" lat="13.530616">
                <ele>113.092285</ele>
                <time>2007-10-28T03:12:27Z</time>
            </trkpt>
            <trkpt lon="99.357614" lat="13.530979">
                <ele>114.053589</ele>
                <time>2007-10-28T03:12:42Z</time>
            </trkpt>
            <trkpt lon="99.357319" lat="13.531467">
                <ele>113.092285</ele>
                <time>2007-10-28T03:13:02Z</time>
            </trkpt>
            <trkpt lon="99.357009" lat="13.531949">
                <ele>115.495605</ele>
                <time>2007-10-28T03:13:22Z</time>
            </trkpt>
            <trkpt lon="99.356813" lat="13.531964">
                <ele>115.495605</ele>
                <time>2007-10-28T03:13:28Z</time>
            </trkpt>
            <trkpt lon="99.356434" lat="13.531720">
                <ele>119.821411</ele>
                <time>2007-10-28T03:13:42Z</time>
            </trkpt>
            <trkpt lon="99.356323" lat="13.531846">
                <ele>118.379395</ele>
                <time>2007-10-28T03:13:47Z</time>
            </trkpt>
            <trkpt lon="99.355872" lat="13.532524">
                <ele>115.014893</ele>
                <time>2007-10-28T03:14:07Z</time>
            </trkpt>
            <trkpt lon="99.355697" lat="13.532724">
                <ele>114.534180</ele>
                <time>2007-10-28T03:14:15Z</time>
            </trkpt>
            <trkpt lon="99.355856" lat="13.532982">
                <ele>113.092285</ele>
                <time>2007-10-28T03:14:25Z</time>
            </trkpt>
            <trkpt lon="99.356105" lat="13.533310">
                <ele>112.130981</ele>
                <time>2007-10-28T03:14:34Z</time>
            </trkpt>
            <trkpt lon="99.356185" lat="13.533482">
                <ele>111.650269</ele>
                <time>2007-10-28T03:14:38Z</time>
            </trkpt>
            <trkpt lon="99.356222" lat="13.533779">
                <ele>110.208252</ele>
                <time>2007-10-28T03:14:43Z</time>
            </trkpt>
            <trkpt lon="99.356601" lat="13.534530">
                <ele>109.246948</ele>
                <time>2007-10-28T03:14:57Z</time>
            </trkpt>
            <trkpt lon="99.357029" lat="13.534885">
                <ele>109.246948</ele>
                <time>2007-10-28T03:15:08Z</time>
            </trkpt>
            <trkpt lon="99.357315" lat="13.535578">
                <ele>108.285645</ele>
                <time>2007-10-28T03:15:22Z</time>
            </trkpt>
            <trkpt lon="99.357349" lat="13.535809">
                <ele>108.285645</ele>
                <time>2007-10-28T03:15:26Z</time>
            </trkpt>
            <trkpt lon="99.357773" lat="13.536573">
                <ele>107.805054</ele>
                <time>2007-10-28T03:15:41Z</time>
            </trkpt>
            <trkpt lon="99.357836" lat="13.536927">
                <ele>107.324341</ele>
                <time>2007-10-28T03:15:47Z</time>
            </trkpt>
            <trkpt lon="99.357823" lat="13.537045">
                <ele>106.843628</ele>
                <time>2007-10-28T03:15:49Z</time>
            </trkpt>
            <trkpt lon="99.357629" lat="13.537344">
                <ele>105.882446</ele>
                <time>2007-10-28T03:15:55Z</time>
            </trkpt>
            <trkpt lon="99.357148" lat="13.537717">
                <ele>102.998291</ele>
                <time>2007-10-28T03:16:04Z</time>
            </trkpt>
            <trkpt lon="99.356770" lat="13.537901">
                <ele>102.037109</ele>
                <time>2007-10-28T03:16:10Z</time>
            </trkpt>
            <trkpt lon="99.355976" lat="13.538223">
                <ele>102.037109</ele>
                <time>2007-10-28T03:16:24Z</time>
            </trkpt>
            <trkpt lon="99.355602" lat="13.538404">
                <ele>103.479004</ele>
                <time>2007-10-28T03:16:32Z</time>
            </trkpt>
            <trkpt lon="99.355547" lat="13.538534">
                <ele>103.479004</ele>
                <time>2007-10-28T03:16:36Z</time>
            </trkpt>
            <trkpt lon="99.355628" lat="13.539036">
                <ele>102.998291</ele>
                <time>2007-10-28T03:16:51Z</time>
            </trkpt>
            <trkpt lon="99.355692" lat="13.539455">
                <ele>105.401733</ele>
                <time>2007-10-28T03:17:05Z</time>
            </trkpt>
            <trkpt lon="99.355642" lat="13.539604">
                <ele>106.363037</ele>
                <time>2007-10-28T03:17:10Z</time>
            </trkpt>
            <trkpt lon="99.355617" lat="13.539818">
                <ele>106.843628</ele>
                <time>2007-10-28T03:17:15Z</time>
            </trkpt>
            <trkpt lon="99.355772" lat="13.540265">
                <ele>106.363037</ele>
                <time>2007-10-28T03:17:28Z</time>
            </trkpt>
            <trkpt lon="99.355488" lat="13.540607">
                <ele>102.998291</ele>
                <time>2007-10-28T03:17:40Z</time>
            </trkpt>
            <trkpt lon="99.355372" lat="13.540735">
                <ele>102.517700</ele>
                <time>2007-10-28T03:17:45Z</time>
            </trkpt>
            <trkpt lon="99.355063" lat="13.540680">
                <ele>102.998291</ele>
                <time>2007-10-28T03:17:54Z</time>
            </trkpt>
            <trkpt lon="99.354504" lat="13.540374">
                <ele>103.959717</ele>
                <time>2007-10-28T03:18:13Z</time>
            </trkpt>
            <trkpt lon="99.354268" lat="13.540241">
                <ele>105.882446</ele>
                <time>2007-10-28T03:18:25Z</time>
            </trkpt>
            <trkpt lon="99.354407" lat="13.540011">
                <ele>106.363037</ele>
                <time>2007-10-28T03:18:37Z</time>
            </trkpt>
            <trkpt lon="99.354599" lat="13.539597">
                <ele>105.882446</ele>
                <time>2007-10-28T03:18:52Z</time>
            </trkpt>
            <trkpt lon="99.354909" lat="13.539000">
                <ele>102.517700</ele>
                <time>2007-10-28T03:19:04Z</time>
            </trkpt>
            <trkpt lon="99.355023" lat="13.538676">
                <ele>102.998291</ele>
                <time>2007-10-28T03:19:15Z</time>
            </trkpt>
            <trkpt lon="99.355056" lat="13.538587">
                <ele>103.479004</ele>
                <time>2007-10-28T03:19:20Z</time>
            </trkpt>
            <trkpt lon="99.354865" lat="13.538468">
                <ele>103.479004</ele>
                <time>2007-10-28T03:19:29Z</time>
            </trkpt>
            <trkpt lon="99.354670" lat="13.538226">
                <ele>102.517700</ele>
                <time>2007-10-28T03:19:39Z</time>
            </trkpt>
            <trkpt lon="99.354372" lat="13.537911">
                <ele>104.921021</ele>
                <time>2007-10-28T03:19:55Z</time>
            </trkpt>
            <trkpt lon="99.354238" lat="13.537397">
                <ele>105.401733</ele>
                <time>2007-10-28T03:20:15Z</time>
            </trkpt>
            <trkpt lon="99.354140" lat="13.537058">
                <ele>105.401733</ele>
                <time>2007-10-28T03:20:28Z</time>
            </trkpt>
            <trkpt lon="99.354040" lat="13.536622">
                <ele>105.401733</ele>
                <time>2007-10-28T03:20:44Z</time>
            </trkpt>
            <trkpt lon="99.353974" lat="13.536315">
                <ele>105.882446</ele>
                <time>2007-10-28T03:20:58Z</time>
            </trkpt>
            <trkpt lon="99.353929" lat="13.536151">
                <ele>105.882446</ele>
                <time>2007-10-28T03:21:13Z</time>
            </trkpt>
            <trkpt lon="99.353897" lat="13.536014">
                <ele>106.363037</ele>
                <time>2007-10-28T03:21:27Z</time>
            </trkpt>
            <trkpt lon="99.353843" lat="13.535753">
                <ele>106.843628</ele>
                <time>2007-10-28T03:21:45Z</time>
            </trkpt>
            <trkpt lon="99.353786" lat="13.535505">
                <ele>107.324341</ele>
                <time>2007-10-28T03:22:01Z</time>
            </trkpt>
            <trkpt lon="99.353697" lat="13.535139">
                <ele>106.843628</ele>
                <time>2007-10-28T03:22:19Z</time>
            </trkpt>
            <trkpt lon="99.353607" lat="13.534710">
                <ele>108.766235</ele>
                <time>2007-10-28T03:22:38Z</time>
            </trkpt>
            <trkpt lon="99.353527" lat="13.534423">
                <ele>110.208252</ele>
                <time>2007-10-28T03:22:49Z</time>
            </trkpt>
            <trkpt lon="99.353179" lat="13.534455">
                <ele>111.650269</ele>
                <time>2007-10-28T03:23:00Z</time>
            </trkpt>
            <trkpt lon="99.353083" lat="13.534429">
                <ele>111.650269</ele>
                <time>2007-10-28T03:23:03Z</time>
            </trkpt>
            <trkpt lon="99.353082" lat="13.534128">
                <ele>112.130981</ele>
                <time>2007-10-28T03:23:13Z</time>
            </trkpt>
            <trkpt lon="99.353074" lat="13.533942">
                <ele>111.650269</ele>
                <time>2007-10-28T03:23:20Z</time>
            </trkpt>
            <trkpt lon="99.352653" lat="13.533692">
                <ele>114.053589</ele>
                <time>2007-10-28T03:23:37Z</time>
            </trkpt>
            <trkpt lon="99.352229" lat="13.533430">
                <ele>114.534180</ele>
                <time>2007-10-28T03:23:52Z</time>
            </trkpt>
            <trkpt lon="99.351874" lat="13.533058">
                <ele>114.534180</ele>
                <time>2007-10-28T03:24:07Z</time>
            </trkpt>
            <trkpt lon="99.351888" lat="13.532873">
                <ele>114.534180</ele>
                <time>2007-10-28T03:24:14Z</time>
            </trkpt>
            <trkpt lon="99.351614" lat="13.532801">
                <ele>115.014893</ele>
                <time>2007-10-28T03:24:27Z</time>
            </trkpt>
            <trkpt lon="99.351235" lat="13.532894">
                <ele>113.572998</ele>
                <time>2007-10-28T03:24:40Z</time>
            </trkpt>
            <trkpt lon="99.350758" lat="13.533089">
                <ele>113.092285</ele>
                <time>2007-10-28T03:24:54Z</time>
            </trkpt>
            <trkpt lon="99.350486" lat="13.533169">
                <ele>112.130981</ele>
                <time>2007-10-28T03:25:01Z</time>
            </trkpt>
            <trkpt lon="99.350156" lat="13.533291">
                <ele>110.688843</ele>
                <time>2007-10-28T03:25:14Z</time>
            </trkpt>
            <trkpt lon="99.349884" lat="13.533368">
                <ele>110.688843</ele>
                <time>2007-10-28T03:25:30Z</time>
            </trkpt>
            <trkpt lon="99.349489" lat="13.533404">
                <ele>109.727661</ele>
                <time>2007-10-28T03:25:46Z</time>
            </trkpt>
            <trkpt lon="99.349001" lat="13.533499">
                <ele>111.169556</ele>
                <time>2007-10-28T03:26:05Z</time>
            </trkpt>
            <trkpt lon="99.349003" lat="13.533923">
                <ele>112.611572</ele>
                <time>2007-10-28T03:26:20Z</time>
            </trkpt>
            <trkpt lon="99.349014" lat="13.534201">
                <ele>112.130981</ele>
                <time>2007-10-28T03:26:28Z</time>
            </trkpt>
            <trkpt lon="99.349166" lat="13.534223">
                <ele>111.650269</ele>
                <time>2007-10-28T03:26:33Z</time>
            </trkpt>
            <trkpt lon="99.349735" lat="13.534181">
                <ele>109.727661</ele>
                <time>2007-10-28T03:26:49Z</time>
            </trkpt>
            <trkpt lon="99.349752" lat="13.534173">
                <ele>109.727661</ele>
                <time>2007-10-28T03:26:52Z</time>
            </trkpt>
            <trkpt lon="99.349891" lat="13.534076">
                <ele>109.246948</ele>
                <time>2007-10-28T03:27:01Z</time>
            </trkpt>
            <trkpt lon="99.349927" lat="13.534017">
                <ele>108.766235</ele>
                <time>2007-10-28T03:27:05Z</time>
            </trkpt>
            <trkpt lon="99.349998" lat="13.534045">
                <ele>108.766235</ele>
                <time>2007-10-28T03:27:10Z</time>
            </trkpt>
            <trkpt lon="99.350068" lat="13.534128">
                <ele>109.246948</ele>
                <time>2007-10-28T03:27:25Z</time>
            </trkpt>
            <trkpt lon="99.350067" lat="13.534131">
                <ele>109.246948</ele>
                <time>2007-10-28T03:27:28Z</time>
            </trkpt>
            <trkpt lon="99.350033" lat="13.534264">
                <ele>108.766235</ele>
                <time>2007-10-28T03:27:43Z</time>
            </trkpt>
            <trkpt lon="99.349996" lat="13.534357">
                <ele>108.766235</ele>
                <time>2007-10-28T03:27:50Z</time>
            </trkpt>
            <trkpt lon="99.350023" lat="13.534390">
                <ele>108.766235</ele>
                <time>2007-10-28T03:27:56Z</time>
            </trkpt>
            <trkpt lon="99.350020" lat="13.534662">
                <ele>109.246948</ele>
                <time>2007-10-28T03:28:11Z</time>
            </trkpt>
            <trkpt lon="99.350043" lat="13.534744">
                <ele>110.208252</ele>
                <time>2007-10-28T03:28:15Z</time>
            </trkpt>
            <trkpt lon="99.350038" lat="13.534929">
                <ele>110.688843</ele>
                <time>2007-10-28T03:28:23Z</time>
            </trkpt>
            <trkpt lon="99.350034" lat="13.535276">
                <ele>111.169556</ele>
                <time>2007-10-28T03:28:38Z</time>
            </trkpt>
            <trkpt lon="99.350000" lat="13.535564">
                <ele>111.650269</ele>
                <time>2007-10-28T03:28:52Z</time>
            </trkpt>
            <trkpt lon="99.349996" lat="13.535635">
                <ele>111.169556</ele>
                <time>2007-10-28T03:28:56Z</time>
            </trkpt>
            <trkpt lon="99.350041" lat="13.535703">
                <ele>110.208252</ele>
                <time>2007-10-28T03:29:01Z</time>
            </trkpt>
            <trkpt lon="99.350343" lat="13.535825">
                <ele>110.688843</ele>
                <time>2007-10-28T03:29:18Z</time>
            </trkpt>
            <trkpt lon="99.350593" lat="13.535904">
                <ele>111.650269</ele>
                <time>2007-10-28T03:29:31Z</time>
            </trkpt>
            <trkpt lon="99.350722" lat="13.535947">
                <ele>111.169556</ele>
                <time>2007-10-28T03:29:38Z</time>
            </trkpt>
            <trkpt lon="99.350997" lat="13.535982">
                <ele>109.727661</ele>
                <time>2007-10-28T03:29:52Z</time>
            </trkpt>
            <trkpt lon="99.351305" lat="13.535945">
                <ele>110.208252</ele>
                <time>2007-10-28T03:30:05Z</time>
            </trkpt>
            <trkpt lon="99.351627" lat="13.535921">
                <ele>109.727661</ele>
                <time>2007-10-28T03:30:19Z</time>
            </trkpt>
            <trkpt lon="99.351834" lat="13.535929">
                <ele>109.246948</ele>
                <time>2007-10-28T03:30:33Z</time>
            </trkpt>
            <trkpt lon="99.351855" lat="13.536044">
                <ele>109.246948</ele>
                <time>2007-10-28T03:30:42Z</time>
            </trkpt>
            <trkpt lon="99.351905" lat="13.536155">
                <ele>108.766235</ele>
                <time>2007-10-28T03:30:52Z</time>
            </trkpt>
            <trkpt lon="99.351922" lat="13.536255">
                <ele>109.246948</ele>
                <time>2007-10-28T03:30:59Z</time>
            </trkpt>
            <trkpt lon="99.351989" lat="13.536498">
                <ele>108.766235</ele>
                <time>2007-10-28T03:31:17Z</time>
            </trkpt>
            <trkpt lon="99.352053" lat="13.536712">
                <ele>108.285645</ele>
                <time>2007-10-28T03:31:30Z</time>
            </trkpt>
            <trkpt lon="99.352041" lat="13.536726">
                <ele>107.805054</ele>
                <time>2007-10-28T03:31:32Z</time>
            </trkpt>
            <trkpt lon="99.351946" lat="13.536730">
                <ele>107.805054</ele>
                <time>2007-10-28T03:31:38Z</time>
            </trkpt>
            <trkpt lon="99.351559" lat="13.536706">
                <ele>107.324341</ele>
                <time>2007-10-28T03:31:54Z</time>
            </trkpt>
            <trkpt lon="99.351275" lat="13.536712">
                <ele>107.324341</ele>
                <time>2007-10-28T03:32:06Z</time>
            </trkpt>
            <trkpt lon="99.350939" lat="13.536659">
                <ele>108.285645</ele>
                <time>2007-10-28T03:32:22Z</time>
            </trkpt>
            <trkpt lon="99.350619" lat="13.536718">
                <ele>108.766235</ele>
                <time>2007-10-28T03:32:37Z</time>
            </trkpt>
            <trkpt lon="99.350307" lat="13.536709">
                <ele>108.766235</ele>
                <time>2007-10-28T03:32:52Z</time>
            </trkpt>
            <trkpt lon="99.349909" lat="13.536916">
                <ele>109.246948</ele>
                <time>2007-10-28T03:33:11Z</time>
            </trkpt>
            <trkpt lon="99.349719" lat="13.537050">
                <ele>107.324341</ele>
                <time>2007-10-28T03:33:23Z</time>
            </trkpt>
            <trkpt lon="99.349513" lat="13.537176">
                <ele>104.921021</ele>
                <time>2007-10-28T03:33:37Z</time>
            </trkpt>
            <trkpt lon="99.349463" lat="13.537190">
                <ele>104.921021</ele>
                <time>2007-10-28T03:33:42Z</time>
            </trkpt>
            <trkpt lon="99.349303" lat="13.537206">
                <ele>104.921021</ele>
                <time>2007-10-28T03:33:54Z</time>
            </trkpt>
            <trkpt lon="99.349288" lat="13.537209">
                <ele>104.921021</ele>
                <time>2007-10-28T03:33:55Z</time>
            </trkpt>
            <trkpt lon="99.349127" lat="13.537203">
                <ele>104.440430</ele>
                <time>2007-10-28T03:34:04Z</time>
            </trkpt>
            <trkpt lon="99.348921" lat="13.537222">
                <ele>103.959717</ele>
                <time>2007-10-28T03:34:18Z</time>
            </trkpt>
            <trkpt lon="99.348898" lat="13.537230">
                <ele>102.517700</ele>
                <time>2007-10-28T03:34:31Z</time>
            </trkpt>
            <trkpt lon="99.348888" lat="13.537263">
                <ele>101.556396</ele>
                <time>2007-10-28T03:34:54Z</time>
            </trkpt>
            <trkpt lon="99.348893" lat="13.537264">
                <ele>100.595093</ele>
                <time>2007-10-28T03:35:13Z</time>
            </trkpt>
            <trkpt lon="99.348882" lat="13.537316">
                <ele>101.075684</ele>
                <time>2007-10-28T03:35:31Z</time>
            </trkpt>
            <trkpt lon="99.348848" lat="13.537359">
                <ele>102.037109</ele>
                <time>2007-10-28T03:35:45Z</time>
            </trkpt>
            <trkpt lon="99.348806" lat="13.537372">
                <ele>102.998291</ele>
                <time>2007-10-28T03:36:15Z</time>
            </trkpt>
            <trkpt lon="99.348768" lat="13.537380">
                <ele>103.479004</ele>
                <time>2007-10-28T03:36:32Z</time>
            </trkpt>
            <trkpt lon="99.348768" lat="13.537384">
                <ele>101.556396</ele>
                <time>2007-10-28T03:37:15Z</time>
            </trkpt>
            <trkpt lon="99.348688" lat="13.537368">
                <ele>102.517700</ele>
                <time>2007-10-28T03:37:32Z</time>
            </trkpt>
            <trkpt lon="99.348678" lat="13.537374">
                <ele>103.959717</ele>
                <time>2007-10-28T03:38:15Z</time>
            </trkpt>
            <trkpt lon="99.348572" lat="13.537395">
                <ele>103.959717</ele>
                <time>2007-10-28T03:38:29Z</time>
            </trkpt>
            <trkpt lon="99.348550" lat="13.537413">
                <ele>104.440430</ele>
                <time>2007-10-28T03:38:32Z</time>
            </trkpt>
            <trkpt lon="99.348387" lat="13.537486">
                <ele>104.921021</ele>
                <time>2007-10-28T03:38:50Z</time>
            </trkpt>
            <trkpt lon="99.348330" lat="13.537525">
                <ele>105.401733</ele>
                <time>2007-10-28T03:39:04Z</time>
            </trkpt>
            <trkpt lon="99.348326" lat="13.537516">
                <ele>103.959717</ele>
                <time>2007-10-28T03:39:51Z</time>
            </trkpt>
            <trkpt lon="99.348317" lat="13.537547">
                <ele>105.401733</ele>
                <time>2007-10-28T03:40:29Z</time>
            </trkpt>
            <trkpt lon="99.348315" lat="13.537552">
                <ele>105.401733</ele>
                <time>2007-10-28T03:42:00Z</time>
            </trkpt>
            <trkpt lon="99.348326" lat="13.537531">
                <ele>104.921021</ele>
                <time>2007-10-28T03:42:20Z</time>
            </trkpt>
            <trkpt lon="99.348347" lat="13.537500">
                <ele>105.882446</ele>
                <time>2007-10-28T03:42:37Z</time>
            </trkpt>
            <trkpt lon="99.348319" lat="13.537540">
                <ele>105.401733</ele>
                <time>2007-10-28T03:42:49Z</time>
            </trkpt>
            <trkpt lon="99.348213" lat="13.537761">
                <ele>105.401733</ele>
                <time>2007-10-28T03:43:06Z</time>
            </trkpt>
            <trkpt lon="99.347968" lat="13.537894">
                <ele>104.921021</ele>
                <time>2007-10-28T03:43:21Z</time>
            </trkpt>
            <trkpt lon="99.347842" lat="13.537907">
                <ele>104.440430</ele>
                <time>2007-10-28T03:43:34Z</time>
            </trkpt>
            <trkpt lon="99.347793" lat="13.537898">
                <ele>103.479004</ele>
                <time>2007-10-28T03:43:49Z</time>
            </trkpt>
            <trkpt lon="99.347754" lat="13.537918">
                <ele>103.479004</ele>
                <time>2007-10-28T03:44:01Z</time>
            </trkpt>
            <trkpt lon="99.347746" lat="13.537929">
                <ele>103.959717</ele>
                <time>2007-10-28T03:44:03Z</time>
            </trkpt>
            <trkpt lon="99.347693" lat="13.538057">
                <ele>104.440430</ele>
                <time>2007-10-28T03:44:15Z</time>
            </trkpt>
            <trkpt lon="99.347599" lat="13.538430">
                <ele>105.401733</ele>
                <time>2007-10-28T03:44:27Z</time>
            </trkpt>
            <trkpt lon="99.347458" lat="13.538729">
                <ele>107.805054</ele>
                <time>2007-10-28T03:44:40Z</time>
            </trkpt>
            <trkpt lon="99.347410" lat="13.538803">
                <ele>107.324341</ele>
                <time>2007-10-28T03:44:44Z</time>
            </trkpt>
            <trkpt lon="99.347547" lat="13.538898">
                <ele>106.843628</ele>
                <time>2007-10-28T03:44:51Z</time>
            </trkpt>
            <trkpt lon="99.347886" lat="13.539069">
                <ele>106.363037</ele>
                <time>2007-10-28T03:45:01Z</time>
            </trkpt>
            <trkpt lon="99.348490" lat="13.539350">
                <ele>105.882446</ele>
                <time>2007-10-28T03:45:15Z</time>
            </trkpt>
            <trkpt lon="99.349012" lat="13.539626">
                <ele>104.921021</ele>
                <time>2007-10-28T03:45:27Z</time>
            </trkpt>
            <trkpt lon="99.349174" lat="13.539678">
                <ele>104.440430</ele>
                <time>2007-10-28T03:45:30Z</time>
            </trkpt>
            <trkpt lon="99.349311" lat="13.539896">
                <ele>103.479004</ele>
                <time>2007-10-28T03:45:35Z</time>
            </trkpt>
            <trkpt lon="99.349337" lat="13.540489">
                <ele>102.998291</ele>
                <time>2007-10-28T03:45:49Z</time>
            </trkpt>
            <trkpt lon="99.349372" lat="13.540802">
                <ele>104.440430</ele>
                <time>2007-10-28T03:46:03Z</time>
            </trkpt>
            <trkpt lon="99.349391" lat="13.540978">
                <ele>103.959717</ele>
                <time>2007-10-28T03:46:18Z</time>
            </trkpt>
            <trkpt lon="99.349392" lat="13.541303">
                <ele>103.959717</ele>
                <time>2007-10-28T03:46:30Z</time>
            </trkpt>
            <trkpt lon="99.349370" lat="13.541943">
                <ele>108.766235</ele>
                <time>2007-10-28T03:46:50Z</time>
            </trkpt>
            <trkpt lon="99.349365" lat="13.542416">
                <ele>110.208252</ele>
                <time>2007-10-28T03:47:02Z</time>
            </trkpt>
            <trkpt lon="99.349370" lat="13.542510">
                <ele>110.688843</ele>
                <time>2007-10-28T03:47:04Z</time>
            </trkpt>
            <trkpt lon="99.349362" lat="13.542615">
                <ele>110.208252</ele>
                <time>2007-10-28T03:47:06Z</time>
            </trkpt>
            <trkpt lon="99.349365" lat="13.543002">
                <ele>108.766235</ele>
                <time>2007-10-28T03:47:13Z</time>
            </trkpt>
            <trkpt lon="99.349626" lat="13.543166">
                <ele>108.766235</ele>
                <time>2007-10-28T03:47:21Z</time>
            </trkpt>
            <trkpt lon="99.349677" lat="13.543165">
                <ele>108.766235</ele>
                <time>2007-10-28T03:47:22Z</time>
            </trkpt>
            <trkpt lon="99.350752" lat="13.543151">
                <ele>107.324341</ele>
                <time>2007-10-28T03:47:40Z</time>
            </trkpt>
            <trkpt lon="99.351982" lat="13.543316">
                <ele>104.921021</ele>
                <time>2007-10-28T03:47:58Z</time>
            </trkpt>
            <trkpt lon="99.353498" lat="13.543579">
                <ele>102.998291</ele>
                <time>2007-10-28T03:48:20Z</time>
            </trkpt>
            <trkpt lon="99.354520" lat="13.543729">
                <ele>102.037109</ele>
                <time>2007-10-28T03:48:38Z</time>
            </trkpt>
            <trkpt lon="99.355295" lat="13.543852">
                <ele>102.517700</ele>
                <time>2007-10-28T03:48:52Z</time>
            </trkpt>
            <trkpt lon="99.355401" lat="13.543962">
                <ele>102.517700</ele>
                <time>2007-10-28T03:48:57Z</time>
            </trkpt>
            <trkpt lon="99.355282" lat="13.544465">
                <ele>102.037109</ele>
                <time>2007-10-28T03:49:15Z</time>
            </trkpt>
            <trkpt lon="99.355298" lat="13.545435">
                <ele>101.075684</ele>
                <time>2007-10-28T03:49:35Z</time>
            </trkpt>
            <trkpt lon="99.355390" lat="13.547136">
                <ele>98.672485</ele>
                <time>2007-10-28T03:50:06Z</time>
            </trkpt>
            <trkpt lon="99.355399" lat="13.547173">
                <ele>98.672485</ele>
                <time>2007-10-28T03:50:07Z</time>
            </trkpt>
            <trkpt lon="99.355706" lat="13.547220">
                <ele>98.672485</ele>
                <time>2007-10-28T03:50:15Z</time>
            </trkpt>
            <trkpt lon="99.356190" lat="13.547188">
                <ele>100.595093</ele>
                <time>2007-10-28T03:50:27Z</time>
            </trkpt>
            <trkpt lon="99.356304" lat="13.547356">
                <ele>101.075684</ele>
                <time>2007-10-28T03:50:32Z</time>
            </trkpt>
            <trkpt lon="99.356367" lat="13.547637">
                <ele>101.556396</ele>
                <time>2007-10-28T03:50:38Z</time>
            </trkpt>
            <trkpt lon="99.356441" lat="13.547977">
                <ele>102.037109</ele>
                <time>2007-10-28T03:50:45Z</time>
            </trkpt>
            <trkpt lon="99.356594" lat="13.548123">
                <ele>102.037109</ele>
                <time>2007-10-28T03:50:51Z</time>
            </trkpt>
            <trkpt lon="99.357174" lat="13.548013">
                <ele>102.998291</ele>
                <time>2007-10-28T03:51:08Z</time>
            </trkpt>
            <trkpt lon="99.357294" lat="13.548034">
                <ele>102.998291</ele>
                <time>2007-10-28T03:51:12Z</time>
            </trkpt>
            <trkpt lon="99.357456" lat="13.548424">
                <ele>103.479004</ele>
                <time>2007-10-28T03:51:24Z</time>
            </trkpt>
            <trkpt lon="99.357631" lat="13.548977">
                <ele>102.037109</ele>
                <time>2007-10-28T03:51:37Z</time>
            </trkpt>
            <trkpt lon="99.357910" lat="13.549083">
                <ele>103.479004</ele>
                <time>2007-10-28T03:51:46Z</time>
            </trkpt>
            <trkpt lon="99.358402" lat="13.549204">
                <ele>107.324341</ele>
                <time>2007-10-28T03:52:02Z</time>
            </trkpt>
            <trkpt lon="99.358870" lat="13.549258">
                <ele>110.688843</ele>
                <time>2007-10-28T03:52:19Z</time>
            </trkpt>
            <trkpt lon="99.359413" lat="13.549242">
                <ele>113.092285</ele>
                <time>2007-10-28T03:52:37Z</time>
            </trkpt>
            <trkpt lon="99.359473" lat="13.549243">
                <ele>113.092285</ele>
                <time>2007-10-28T03:52:39Z</time>
            </trkpt>
            <trkpt lon="99.359576" lat="13.549375">
                <ele>114.053589</ele>
                <time>2007-10-28T03:52:45Z</time>
            </trkpt>
            <trkpt lon="99.359873" lat="13.549904">
                <ele>114.053589</ele>
                <time>2007-10-28T03:53:04Z</time>
            </trkpt>
            <trkpt lon="99.360305" lat="13.550671">
                <ele>112.130981</ele>
                <time>2007-10-28T03:53:25Z</time>
            </trkpt>
            <trkpt lon="99.360495" lat="13.551017">
                <ele>111.650269</ele>
                <time>2007-10-28T03:53:33Z</time>
            </trkpt>
            <trkpt lon="99.360775" lat="13.551464">
                <ele>110.688843</ele>
                <time>2007-10-28T03:53:43Z</time>
            </trkpt>
            <trkpt lon="99.360876" lat="13.551592">
                <ele>110.208252</ele>
                <time>2007-10-28T03:53:47Z</time>
            </trkpt>
            <trkpt lon="99.360971" lat="13.551452">
                <ele>110.688843</ele>
                <time>2007-10-28T03:53:54Z</time>
            </trkpt>
            <trkpt lon="99.360966" lat="13.550894">
                <ele>112.611572</ele>
                <time>2007-10-28T03:54:10Z</time>
            </trkpt>
            <trkpt lon="99.360969" lat="13.550286">
                <ele>115.014893</ele>
                <time>2007-10-28T03:54:28Z</time>
            </trkpt>
            <trkpt lon="99.360957" lat="13.549596">
                <ele>117.418213</ele>
                <time>2007-10-28T03:54:48Z</time>
            </trkpt>
            <trkpt lon="99.360958" lat="13.549127">
                <ele>117.418213</ele>
                <time>2007-10-28T03:55:00Z</time>
            </trkpt>
            <trkpt lon="99.360953" lat="13.548194">
                <ele>116.456787</ele>
                <time>2007-10-28T03:55:18Z</time>
            </trkpt>
            <trkpt lon="99.360934" lat="13.547321">
                <ele>115.976196</ele>
                <time>2007-10-28T03:55:33Z</time>
            </trkpt>
            <trkpt lon="99.360942" lat="13.547084">
                <ele>115.976196</ele>
                <time>2007-10-28T03:55:37Z</time>
            </trkpt>
            <trkpt lon="99.360959" lat="13.546505">
                <ele>117.898804</ele>
                <time>2007-10-28T03:55:50Z</time>
            </trkpt>
            <trkpt lon="99.360952" lat="13.546113">
                <ele>119.340820</ele>
                <time>2007-10-28T03:56:04Z</time>
            </trkpt>
            <trkpt lon="99.360970" lat="13.545516">
                <ele>119.821411</ele>
                <time>2007-10-28T03:56:22Z</time>
            </trkpt>
            <trkpt lon="99.361022" lat="13.544896">
                <ele>119.340820</ele>
                <time>2007-10-28T03:56:37Z</time>
            </trkpt>
            <trkpt lon="99.361029" lat="13.544803">
                <ele>119.340820</ele>
                <time>2007-10-28T03:56:39Z</time>
            </trkpt>
            <trkpt lon="99.361014" lat="13.544691">
                <ele>119.340820</ele>
                <time>2007-10-28T03:56:48Z</time>
            </trkpt>
            <trkpt lon="99.360964" lat="13.544570">
                <ele>119.340820</ele>
                <time>2007-10-28T03:57:00Z</time>
            </trkpt>
            <trkpt lon="99.360950" lat="13.544428">
                <ele>118.379395</ele>
                <time>2007-10-28T03:57:03Z</time>
            </trkpt>
            <trkpt lon="99.360971" lat="13.543832">
                <ele>114.534180</ele>
                <time>2007-10-28T03:57:13Z</time>
            </trkpt>
            <trkpt lon="99.360978" lat="13.542187">
                <ele>110.208252</ele>
                <time>2007-10-28T03:57:38Z</time>
            </trkpt>
            <trkpt lon="99.360983" lat="13.541122">
                <ele>112.130981</ele>
                <time>2007-10-28T03:57:57Z</time>
            </trkpt>
            <trkpt lon="99.360987" lat="13.540235">
                <ele>110.688843</ele>
                <time>2007-10-28T03:58:12Z</time>
            </trkpt>
            <trkpt lon="99.361088" lat="13.539768">
                <ele>109.246948</ele>
                <time>2007-10-28T03:58:23Z</time>
            </trkpt>
            <trkpt lon="99.361276" lat="13.539483">
                <ele>107.324341</ele>
                <time>2007-10-28T03:58:37Z</time>
            </trkpt>
            <trkpt lon="99.361465" lat="13.539222">
                <ele>103.479004</ele>
                <time>2007-10-28T03:58:54Z</time>
            </trkpt>
            <trkpt lon="99.361656" lat="13.538930">
                <ele>103.479004</ele>
                <time>2007-10-28T03:59:08Z</time>
            </trkpt>
            <trkpt lon="99.361900" lat="13.538566">
                <ele>106.363037</ele>
                <time>2007-10-28T03:59:25Z</time>
            </trkpt>
            <trkpt lon="99.362168" lat="13.538192">
                <ele>107.805054</ele>
                <time>2007-10-28T03:59:43Z</time>
            </trkpt>
            <trkpt lon="99.362351" lat="13.537912">
                <ele>109.246948</ele>
                <time>2007-10-28T04:00:00Z</time>
            </trkpt>
            <trkpt lon="99.362352" lat="13.537910">
                <ele>109.246948</ele>
                <time>2007-10-28T04:00:23Z</time>
            </trkpt>
            <trkpt lon="99.362351" lat="13.537912">
                <ele>110.208252</ele>
                <time>2007-10-28T04:00:57Z</time>
            </trkpt>
            <trkpt lon="99.362355" lat="13.537916">
                <ele>109.246948</ele>
                <time>2007-10-28T04:02:26Z</time>
            </trkpt>
            <trkpt lon="99.362374" lat="13.537902">
                <ele>108.285645</ele>
                <time>2007-10-28T04:02:46Z</time>
            </trkpt>
            <trkpt lon="99.362448" lat="13.537793">
                <ele>109.246948</ele>
                <time>2007-10-28T04:03:06Z</time>
            </trkpt>
            <trkpt lon="99.362556" lat="13.537485">
                <ele>108.766235</ele>
                <time>2007-10-28T04:03:19Z</time>
            </trkpt>
            <trkpt lon="99.362732" lat="13.537162">
                <ele>108.285645</ele>
                <time>2007-10-28T04:03:33Z</time>
            </trkpt>
            <trkpt lon="99.362948" lat="13.536868">
                <ele>107.324341</ele>
                <time>2007-10-28T04:03:48Z</time>
            </trkpt>
            <trkpt lon="99.362967" lat="13.536805">
                <ele>106.843628</ele>
                <time>2007-10-28T04:03:50Z</time>
            </trkpt>
            <trkpt lon="99.363095" lat="13.536717">
                <ele>106.843628</ele>
                <time>2007-10-28T04:03:55Z</time>
            </trkpt>
            <trkpt lon="99.363279" lat="13.536514">
                <ele>107.805054</ele>
                <time>2007-10-28T04:04:06Z</time>
            </trkpt>
            <trkpt lon="99.363411" lat="13.536496">
                <ele>107.805054</ele>
                <time>2007-10-28T04:04:10Z</time>
            </trkpt>
            <trkpt lon="99.363963" lat="13.536434">
                <ele>108.285645</ele>
                <time>2007-10-28T04:04:28Z</time>
            </trkpt>
            <trkpt lon="99.364156" lat="13.536349">
                <ele>108.285645</ele>
                <time>2007-10-28T04:04:40Z</time>
            </trkpt>
            <trkpt lon="99.364223" lat="13.536288">
                <ele>106.843628</ele>
                <time>2007-10-28T04:04:51Z</time>
            </trkpt>
            <trkpt lon="99.364258" lat="13.536249">
                <ele>107.324341</ele>
                <time>2007-10-28T04:05:04Z</time>
            </trkpt>
            <trkpt lon="99.364298" lat="13.536193">
                <ele>104.921021</ele>
                <time>2007-10-28T04:05:20Z</time>
            </trkpt>
            <trkpt lon="99.364384" lat="13.536094">
                <ele>104.440430</ele>
                <time>2007-10-28T04:05:37Z</time>
            </trkpt>
            <trkpt lon="99.364392" lat="13.536086">
                <ele>104.921021</ele>
                <time>2007-10-28T04:05:42Z</time>
            </trkpt>
            <trkpt lon="99.364587" lat="13.535992">
                <ele>106.363037</ele>
                <time>2007-10-28T04:05:59Z</time>
            </trkpt>
            <trkpt lon="99.364751" lat="13.536001">
                <ele>107.805054</ele>
                <time>2007-10-28T04:06:15Z</time>
            </trkpt>
            <trkpt lon="99.364793" lat="13.536040">
                <ele>109.246948</ele>
                <time>2007-10-28T04:06:21Z</time>
            </trkpt>
            <trkpt lon="99.364877" lat="13.536129">
                <ele>109.727661</ele>
                <time>2007-10-28T04:06:34Z</time>
            </trkpt>
            <trkpt lon="99.364927" lat="13.536185">
                <ele>110.208252</ele>
                <time>2007-10-28T04:06:49Z</time>
            </trkpt>
            <trkpt lon="99.364956" lat="13.536212">
                <ele>110.688843</ele>
                <time>2007-10-28T04:07:03Z</time>
            </trkpt>
            <trkpt lon="99.364956" lat="13.536244">
                <ele>108.285645</ele>
                <time>2007-10-28T04:07:21Z</time>
            </trkpt>
            <trkpt lon="99.364993" lat="13.536270">
                <ele>109.727661</ele>
                <time>2007-10-28T04:07:35Z</time>
            </trkpt>
            <trkpt lon="99.365073" lat="13.536351">
                <ele>109.727661</ele>
                <time>2007-10-28T04:07:49Z</time>
            </trkpt>
            <trkpt lon="99.365096" lat="13.536399">
                <ele>110.208252</ele>
                <time>2007-10-28T04:07:55Z</time>
            </trkpt>
            <trkpt lon="99.365211" lat="13.536424">
                <ele>109.727661</ele>
                <time>2007-10-28T04:08:08Z</time>
            </trkpt>
            <trkpt lon="99.365358" lat="13.536422">
                <ele>110.688843</ele>
                <time>2007-10-28T04:08:25Z</time>
            </trkpt>
            <trkpt lon="99.365444" lat="13.536390">
                <ele>110.688843</ele>
                <time>2007-10-28T04:08:37Z</time>
            </trkpt>
            <trkpt lon="99.365449" lat="13.536383">
                <ele>110.688843</ele>
                <time>2007-10-28T04:08:38Z</time>
            </trkpt>
            <trkpt lon="99.365542" lat="13.536226">
                <ele>110.688843</ele>
                <time>2007-10-28T04:08:57Z</time>
            </trkpt>
            <trkpt lon="99.365583" lat="13.536180">
                <ele>110.688843</ele>
                <time>2007-10-28T04:09:04Z</time>
            </trkpt>
            <trkpt lon="99.365671" lat="13.536156">
                <ele>111.169556</ele>
                <time>2007-10-28T04:09:09Z</time>
            </trkpt>
            <trkpt lon="99.365700" lat="13.536087">
                <ele>111.169556</ele>
                <time>2007-10-28T04:09:13Z</time>
            </trkpt>
            <trkpt lon="99.365723" lat="13.535767">
                <ele>111.169556</ele>
                <time>2007-10-28T04:09:27Z</time>
            </trkpt>
            <trkpt lon="99.365700" lat="13.535705">
                <ele>110.208252</ele>
                <time>2007-10-28T04:09:38Z</time>
            </trkpt>
            <trkpt lon="99.365680" lat="13.535610">
                <ele>108.285645</ele>
                <time>2007-10-28T04:09:47Z</time>
            </trkpt>
            <trkpt lon="99.365662" lat="13.535497">
                <ele>111.169556</ele>
                <time>2007-10-28T04:10:04Z</time>
            </trkpt>
            <trkpt lon="99.365611" lat="13.535417">
                <ele>112.130981</ele>
                <time>2007-10-28T04:10:18Z</time>
            </trkpt>
            <trkpt lon="99.365377" lat="13.535328">
                <ele>113.092285</ele>
                <time>2007-10-28T04:10:33Z</time>
            </trkpt>
            <trkpt lon="99.365039" lat="13.535199">
                <ele>112.130981</ele>
                <time>2007-10-28T04:10:49Z</time>
            </trkpt>
            <trkpt lon="99.364791" lat="13.535048">
                <ele>112.611572</ele>
                <time>2007-10-28T04:11:04Z</time>
            </trkpt>
            <trkpt lon="99.364612" lat="13.534844">
                <ele>112.611572</ele>
                <time>2007-10-28T04:11:18Z</time>
            </trkpt>
            <trkpt lon="99.364535" lat="13.534599">
                <ele>113.092285</ele>
                <time>2007-10-28T04:11:30Z</time>
            </trkpt>
            <trkpt lon="99.364304" lat="13.534273">
                <ele>113.572998</ele>
                <time>2007-10-28T04:11:45Z</time>
            </trkpt>
            <trkpt lon="99.364348" lat="13.534111">
                <ele>112.611572</ele>
                <time>2007-10-28T04:11:52Z</time>
            </trkpt>
            <trkpt lon="99.364661" lat="13.533971">
                <ele>112.611572</ele>
                <time>2007-10-28T04:12:06Z</time>
            </trkpt>
            <trkpt lon="99.364817" lat="13.533700">
                <ele>111.650269</ele>
                <time>2007-10-28T04:12:22Z</time>
            </trkpt>
            <trkpt lon="99.365030" lat="13.533576">
                <ele>112.130981</ele>
                <time>2007-10-28T04:12:36Z</time>
            </trkpt>
            <trkpt lon="99.365274" lat="13.533386">
                <ele>111.650269</ele>
                <time>2007-10-28T04:12:51Z</time>
            </trkpt>
            <trkpt lon="99.365327" lat="13.533260">
                <ele>111.169556</ele>
                <time>2007-10-28T04:12:56Z</time>
            </trkpt>
            <trkpt lon="99.365357" lat="13.533053">
                <ele>111.650269</ele>
                <time>2007-10-28T04:13:06Z</time>
            </trkpt>
            <trkpt lon="99.365407" lat="13.532986">
                <ele>111.650269</ele>
                <time>2007-10-28T04:13:14Z</time>
            </trkpt>
            <trkpt lon="99.365721" lat="13.533061">
                <ele>112.130981</ele>
                <time>2007-10-28T04:13:31Z</time>
            </trkpt>
            <trkpt lon="99.365900" lat="13.533067">
                <ele>113.092285</ele>
                <time>2007-10-28T04:13:41Z</time>
            </trkpt>
            <trkpt lon="99.366067" lat="13.533221">
                <ele>114.534180</ele>
                <time>2007-10-28T04:13:56Z</time>
            </trkpt>
            <trkpt lon="99.366372" lat="13.533235">
                <ele>115.976196</ele>
                <time>2007-10-28T04:14:12Z</time>
            </trkpt>
            <trkpt lon="99.366456" lat="13.533234">
                <ele>116.456787</ele>
                <time>2007-10-28T04:14:16Z</time>
            </trkpt>
            <trkpt lon="99.366614" lat="13.533256">
                <ele>116.937500</ele>
                <time>2007-10-28T04:14:25Z</time>
            </trkpt>
            <trkpt lon="99.366932" lat="13.533307">
                <ele>117.898804</ele>
                <time>2007-10-28T04:14:42Z</time>
            </trkpt>
            <trkpt lon="99.367221" lat="13.533355">
                <ele>118.860107</ele>
                <time>2007-10-28T04:14:56Z</time>
            </trkpt>
            <trkpt lon="99.367569" lat="13.533371">
                <ele>120.782837</ele>
                <time>2007-10-28T04:15:10Z</time>
            </trkpt>
            <trkpt lon="99.367813" lat="13.533201">
                <ele>121.263550</ele>
                <time>2007-10-28T04:15:23Z</time>
            </trkpt>
            <trkpt lon="99.368141" lat="13.533092">
                <ele>121.744141</ele>
                <time>2007-10-28T04:15:37Z</time>
            </trkpt>
            <trkpt lon="99.368667" lat="13.533037">
                <ele>124.147339</ele>
                <time>2007-10-28T04:15:55Z</time>
            </trkpt>
            <trkpt lon="99.368696" lat="13.533015">
                <ele>124.147339</ele>
                <time>2007-10-28T04:15:57Z</time>
            </trkpt>
            <trkpt lon="99.368706" lat="13.532914">
                <ele>125.108765</ele>
                <time>2007-10-28T04:16:02Z</time>
            </trkpt>
            <trkpt lon="99.368684" lat="13.532405">
                <ele>127.992554</ele>
                <time>2007-10-28T04:16:22Z</time>
            </trkpt>
            <trkpt lon="99.368529" lat="13.531840">
                <ele>128.954102</ele>
                <time>2007-10-28T04:16:40Z</time>
            </trkpt>
            <trkpt lon="99.368227" lat="13.530998">
                <ele>127.031372</ele>
                <time>2007-10-28T04:17:00Z</time>
            </trkpt>
            <trkpt lon="99.367874" lat="13.530044">
                <ele>124.147339</ele>
                <time>2007-10-28T04:17:18Z</time>
            </trkpt>
            <trkpt lon="99.367562" lat="13.529208">
                <ele>121.744141</ele>
                <time>2007-10-28T04:17:34Z</time>
            </trkpt>
            <trkpt lon="99.367844" lat="13.529096">
                <ele>122.224731</ele>
                <time>2007-10-28T04:17:45Z</time>
            </trkpt>
            <trkpt lon="99.368394" lat="13.528924">
                <ele>124.147339</ele>
                <time>2007-10-28T04:18:02Z</time>
            </trkpt>
            <trkpt lon="99.369098" lat="13.528724">
                <ele>124.628052</ele>
                <time>2007-10-28T04:18:22Z</time>
            </trkpt>
            <trkpt lon="99.369944" lat="13.528645">
                <ele>125.589355</ele>
                <time>2007-10-28T04:18:43Z</time>
            </trkpt>
            <trkpt lon="99.370366" lat="13.528612">
                <ele>125.589355</ele>
                <time>2007-10-28T04:18:53Z</time>
            </trkpt>
            <trkpt lon="99.371369" lat="13.528490">
                <ele>125.108765</ele>
                <time>2007-10-28T04:19:13Z</time>
            </trkpt>
            <trkpt lon="99.372325" lat="13.528310">
                <ele>124.628052</ele>
                <time>2007-10-28T04:19:31Z</time>
            </trkpt>
            <trkpt lon="99.373041" lat="13.528056">
                <ele>125.589355</ele>
                <time>2007-10-28T04:19:48Z</time>
            </trkpt>
            <trkpt lon="99.373909" lat="13.527728">
                <ele>127.031372</ele>
                <time>2007-10-28T04:20:11Z</time>
            </trkpt>
            <trkpt lon="99.374788" lat="13.527417">
                <ele>128.473389</ele>
                <time>2007-10-28T04:20:35Z</time>
            </trkpt>
            <trkpt lon="99.375317" lat="13.527421">
                <ele>128.954102</ele>
                <time>2007-10-28T04:20:51Z</time>
            </trkpt>
            <trkpt lon="99.375417" lat="13.528044">
                <ele>131.837891</ele>
                <time>2007-10-28T04:21:09Z</time>
            </trkpt>
            <trkpt lon="99.375554" lat="13.528717">
                <ele>133.760498</ele>
                <time>2007-10-28T04:21:28Z</time>
            </trkpt>
            <trkpt lon="99.375690" lat="13.528748">
                <ele>133.760498</ele>
                <time>2007-10-28T04:21:32Z</time>
            </trkpt>
            <trkpt lon="99.376532" lat="13.528612">
                <ele>134.721924</ele>
                <time>2007-10-28T04:21:53Z</time>
            </trkpt>
            <trkpt lon="99.377380" lat="13.528412">
                <ele>134.241211</ele>
                <time>2007-10-28T04:22:12Z</time>
            </trkpt>
            <trkpt lon="99.378290" lat="13.528182">
                <ele>133.760498</ele>
                <time>2007-10-28T04:22:32Z</time>
            </trkpt>
            <trkpt lon="99.378571" lat="13.528105">
                <ele>133.760498</ele>
                <time>2007-10-28T04:22:39Z</time>
            </trkpt>
            <trkpt lon="99.378639" lat="13.527944">
                <ele>134.241211</ele>
                <time>2007-10-28T04:22:45Z</time>
            </trkpt>
            <trkpt lon="99.378784" lat="13.527170">
                <ele>135.202515</ele>
                <time>2007-10-28T04:23:08Z</time>
            </trkpt>
            <trkpt lon="99.378957" lat="13.526387">
                <ele>136.163940</ele>
                <time>2007-10-28T04:23:29Z</time>
            </trkpt>
            <trkpt lon="99.378973" lat="13.525504">
                <ele>135.683105</ele>
                <time>2007-10-28T04:23:51Z</time>
            </trkpt>
            <trkpt lon="99.378885" lat="13.524804">
                <ele>134.241211</ele>
                <time>2007-10-28T04:24:07Z</time>
            </trkpt>
            <trkpt lon="99.378852" lat="13.524530">
                <ele>133.760498</ele>
                <time>2007-10-28T04:24:14Z</time>
            </trkpt>
            <trkpt lon="99.378744" lat="13.524509">
                <ele>132.799316</ele>
                <time>2007-10-28T04:24:20Z</time>
            </trkpt>
            <trkpt lon="99.378172" lat="13.524617">
                <ele>130.876709</ele>
                <time>2007-10-28T04:24:36Z</time>
            </trkpt>
            <trkpt lon="99.377374" lat="13.524754">
                <ele>127.992554</ele>
                <time>2007-10-28T04:24:54Z</time>
            </trkpt>
            <trkpt lon="99.376691" lat="13.524878">
                <ele>126.069946</ele>
                <time>2007-10-28T04:25:11Z</time>
            </trkpt>
            <trkpt lon="99.376273" lat="13.524954">
                <ele>124.628052</ele>
                <time>2007-10-28T04:25:23Z</time>
            </trkpt>
            <trkpt lon="99.375820" lat="13.525036">
                <ele>123.186157</ele>
                <time>2007-10-28T04:25:34Z</time>
            </trkpt>
            <trkpt lon="99.375195" lat="13.525018">
                <ele>123.186157</ele>
                <time>2007-10-28T04:25:50Z</time>
            </trkpt>
            <trkpt lon="99.374735" lat="13.524901">
                <ele>123.186157</ele>
                <time>2007-10-28T04:26:04Z</time>
            </trkpt>
            <trkpt lon="99.374424" lat="13.524902">
                <ele>123.666748</ele>
                <time>2007-10-28T04:26:15Z</time>
            </trkpt>
            <trkpt lon="99.373797" lat="13.525140">
                <ele>121.744141</ele>
                <time>2007-10-28T04:26:32Z</time>
            </trkpt>
            <trkpt lon="99.373388" lat="13.525290">
                <ele>120.782837</ele>
                <time>2007-10-28T04:26:42Z</time>
            </trkpt>
            <trkpt lon="99.372749" lat="13.525490">
                <ele>119.340820</ele>
                <time>2007-10-28T04:26:58Z</time>
            </trkpt>
            <trkpt lon="99.372037" lat="13.525635">
                <ele>118.860107</ele>
                <time>2007-10-28T04:27:16Z</time>
            </trkpt>
            <trkpt lon="99.371780" lat="13.525682">
                <ele>118.860107</ele>
                <time>2007-10-28T04:27:24Z</time>
            </trkpt>
            <trkpt lon="99.371756" lat="13.525632">
                <ele>119.340820</ele>
                <time>2007-10-28T04:27:31Z</time>
            </trkpt>
            <trkpt lon="99.371708" lat="13.525571">
                <ele>119.340820</ele>
                <time>2007-10-28T04:27:40Z</time>
            </trkpt>
            <trkpt lon="99.371709" lat="13.525522">
                <ele>120.302124</ele>
                <time>2007-10-28T04:27:52Z</time>
            </trkpt>
            <trkpt lon="99.371720" lat="13.525459">
                <ele>120.782837</ele>
                <time>2007-10-28T04:28:01Z</time>
            </trkpt>
            <trkpt lon="99.371738" lat="13.525406">
                <ele>120.782837</ele>
                <time>2007-10-28T04:28:06Z</time>
            </trkpt>
            <trkpt lon="99.371764" lat="13.525362">
                <ele>121.263550</ele>
                <time>2007-10-28T04:28:11Z</time>
            </trkpt>
            <trkpt lon="99.371825" lat="13.525214">
                <ele>122.224731</ele>
                <time>2007-10-28T04:28:27Z</time>
            </trkpt>
            <trkpt lon="99.371837" lat="13.525162">
                <ele>122.705444</ele>
                <time>2007-10-28T04:28:32Z</time>
            </trkpt>
            <trkpt lon="99.371900" lat="13.525032">
                <ele>123.186157</ele>
                <time>2007-10-28T04:28:44Z</time>
            </trkpt>
            <trkpt lon="99.372047" lat="13.524656">
                <ele>125.108765</ele>
                <time>2007-10-28T04:29:02Z</time>
            </trkpt>
            <trkpt lon="99.372228" lat="13.524254">
                <ele>127.511963</ele>
                <time>2007-10-28T04:29:20Z</time>
            </trkpt>
            <trkpt lon="99.372355" lat="13.523934">
                <ele>128.954102</ele>
                <time>2007-10-28T04:29:38Z</time>
            </trkpt>
            <trkpt lon="99.372370" lat="13.523855">
                <ele>129.434692</ele>
                <time>2007-10-28T04:29:47Z</time>
            </trkpt>
            <trkpt lon="99.372335" lat="13.523831">
                <ele>129.915283</ele>
                <time>2007-10-28T04:29:52Z</time>
            </trkpt>
            <trkpt lon="99.372305" lat="13.523827">
                <ele>129.915283</ele>
                <time>2007-10-28T04:29:55Z</time>
            </trkpt>
            <trkpt lon="99.371959" lat="13.523694">
                <ele>131.357300</ele>
                <time>2007-10-28T04:30:11Z</time>
            </trkpt>
            <trkpt lon="99.371382" lat="13.523460">
                <ele>132.799316</ele>
                <time>2007-10-28T04:30:31Z</time>
            </trkpt>
            <trkpt lon="99.371195" lat="13.523373">
                <ele>132.799316</ele>
                <time>2007-10-28T04:30:38Z</time>
            </trkpt>
            <trkpt lon="99.371210" lat="13.523263">
                <ele>132.799316</ele>
                <time>2007-10-28T04:30:43Z</time>
            </trkpt>
            <trkpt lon="99.371408" lat="13.522803">
                <ele>134.241211</ele>
                <time>2007-10-28T04:31:01Z</time>
            </trkpt>
            <trkpt lon="99.371448" lat="13.522681">
                <ele>134.241211</ele>
                <time>2007-10-28T04:31:11Z</time>
            </trkpt>
            <trkpt lon="99.371641" lat="13.522227">
                <ele>135.202515</ele>
                <time>2007-10-28T04:31:26Z</time>
            </trkpt>
            <trkpt lon="99.371650" lat="13.522171">
                <ele>135.202515</ele>
                <time>2007-10-28T04:31:35Z</time>
            </trkpt>
            <trkpt lon="99.371753" lat="13.521928">
                <ele>135.683105</ele>
                <time>2007-10-28T04:31:46Z</time>
            </trkpt>
            <trkpt lon="99.371894" lat="13.521610">
                <ele>135.683105</ele>
                <time>2007-10-28T04:32:00Z</time>
            </trkpt>
            <trkpt lon="99.371993" lat="13.521340">
                <ele>136.163940</ele>
                <time>2007-10-28T04:32:15Z</time>
            </trkpt>
            <trkpt lon="99.372142" lat="13.521021">
                <ele>136.644653</ele>
                <time>2007-10-28T04:32:29Z</time>
            </trkpt>
            <trkpt lon="99.372224" lat="13.520792">
                <ele>136.644653</ele>
                <time>2007-10-28T04:32:41Z</time>
            </trkpt>
            <trkpt lon="99.372420" lat="13.520366">
                <ele>136.644653</ele>
                <time>2007-10-28T04:32:56Z</time>
            </trkpt>
            <trkpt lon="99.372459" lat="13.519857">
                <ele>135.683105</ele>
                <time>2007-10-28T04:33:12Z</time>
            </trkpt>
            <trkpt lon="99.372331" lat="13.519230">
                <ele>133.279907</ele>
                <time>2007-10-28T04:33:30Z</time>
            </trkpt>
            <trkpt lon="99.372260" lat="13.519162">
                <ele>132.799316</ele>
                <time>2007-10-28T04:33:33Z</time>
            </trkpt>
            <trkpt lon="99.371516" lat="13.519116">
                <ele>131.357300</ele>
                <time>2007-10-28T04:33:50Z</time>
            </trkpt>
            <trkpt lon="99.371363" lat="13.519110">
                <ele>131.357300</ele>
                <time>2007-10-28T04:33:53Z</time>
            </trkpt>
            <trkpt lon="99.370330" lat="13.519034">
                <ele>127.031372</ele>
                <time>2007-10-28T04:34:10Z</time>
            </trkpt>
            <trkpt lon="99.369100" lat="13.518975">
                <ele>123.666748</ele>
                <time>2007-10-28T04:34:29Z</time>
            </trkpt>
            <trkpt lon="99.367681" lat="13.518868">
                <ele>123.186157</ele>
                <time>2007-10-28T04:34:51Z</time>
            </trkpt>
            <trkpt lon="99.366823" lat="13.518811">
                <ele>124.628052</ele>
                <time>2007-10-28T04:35:09Z</time>
            </trkpt>
            <trkpt lon="99.365898" lat="13.518759">
                <ele>124.147339</ele>
                <time>2007-10-28T04:35:28Z</time>
            </trkpt>
            <trkpt lon="99.365256" lat="13.518712">
                <ele>126.550659</ele>
                <time>2007-10-28T04:35:46Z</time>
            </trkpt>
            <trkpt lon="99.364462" lat="13.518664">
                <ele>126.069946</ele>
                <time>2007-10-28T04:36:05Z</time>
            </trkpt>
            <trkpt lon="99.363647" lat="13.518604">
                <ele>122.705444</ele>
                <time>2007-10-28T04:36:19Z</time>
            </trkpt>
            <trkpt lon="99.362686" lat="13.518543">
                <ele>122.224731</ele>
                <time>2007-10-28T04:36:35Z</time>
            </trkpt>
            <trkpt lon="99.361992" lat="13.518498">
                <ele>125.589355</ele>
                <time>2007-10-28T04:36:53Z</time>
            </trkpt>
            <trkpt lon="99.361280" lat="13.518456">
                <ele>128.954102</ele>
                <time>2007-10-28T04:37:14Z</time>
            </trkpt>
            <trkpt lon="99.360959" lat="13.518418">
                <ele>128.954102</ele>
                <time>2007-10-28T04:37:28Z</time>
            </trkpt>
            <trkpt lon="99.360784" lat="13.518410">
                <ele>128.954102</ele>
                <time>2007-10-28T04:37:33Z</time>
            </trkpt>
            <trkpt lon="99.360170" lat="13.518404">
                <ele>129.434692</ele>
                <time>2007-10-28T04:37:50Z</time>
            </trkpt>
            <trkpt lon="99.359597" lat="13.518350">
                <ele>128.954102</ele>
                <time>2007-10-28T04:38:07Z</time>
            </trkpt>
            <trkpt lon="99.359113" lat="13.518324">
                <ele>128.473389</ele>
                <time>2007-10-28T04:38:21Z</time>
            </trkpt>
            <trkpt lon="99.358413" lat="13.518278">
                <ele>126.069946</ele>
                <time>2007-10-28T04:38:37Z</time>
            </trkpt>
            <trkpt lon="99.357436" lat="13.518217">
                <ele>124.628052</ele>
                <time>2007-10-28T04:38:56Z</time>
            </trkpt>
            <trkpt lon="99.356525" lat="13.518145">
                <ele>124.147339</ele>
                <time>2007-10-28T04:39:14Z</time>
            </trkpt>
            <trkpt lon="99.355558" lat="13.518082">
                <ele>124.147339</ele>
                <time>2007-10-28T04:39:33Z</time>
            </trkpt>
            <trkpt lon="99.354516" lat="13.518010">
                <ele>123.186157</ele>
                <time>2007-10-28T04:39:54Z</time>
            </trkpt>
            <trkpt lon="99.353582" lat="13.517943">
                <ele>123.186157</ele>
                <time>2007-10-28T04:40:13Z</time>
            </trkpt>
            <trkpt lon="99.352315" lat="13.517768">
                <ele>120.302124</ele>
                <time>2007-10-28T04:40:34Z</time>
            </trkpt>
            <trkpt lon="99.350964" lat="13.517549">
                <ele>119.340820</ele>
                <time>2007-10-28T04:40:52Z</time>
            </trkpt>
            <trkpt lon="99.350713" lat="13.517424">
                <ele>119.821411</ele>
                <time>2007-10-28T04:40:56Z</time>
            </trkpt>
            <trkpt lon="99.349964" lat="13.516621">
                <ele>120.782837</ele>
                <time>2007-10-28T04:41:14Z</time>
            </trkpt>
            <trkpt lon="99.349809" lat="13.516355">
                <ele>121.263550</ele>
                <time>2007-10-28T04:41:20Z</time>
            </trkpt>
            <trkpt lon="99.349716" lat="13.515475">
                <ele>119.821411</ele>
                <time>2007-10-28T04:41:37Z</time>
            </trkpt>
            <trkpt lon="99.349728" lat="13.515188">
                <ele>119.340820</ele>
                <time>2007-10-28T04:41:43Z</time>
            </trkpt>
            <trkpt lon="99.349560" lat="13.515049">
                <ele>119.821411</ele>
                <time>2007-10-28T04:41:49Z</time>
            </trkpt>
            <trkpt lon="99.349338" lat="13.515032">
                <ele>119.821411</ele>
                <time>2007-10-28T04:41:54Z</time>
            </trkpt>
            <trkpt lon="99.349207" lat="13.515050">
                <ele>120.302124</ele>
                <time>2007-10-28T04:41:57Z</time>
            </trkpt>
            <trkpt lon="99.348582" lat="13.515473">
                <ele>120.782837</ele>
                <time>2007-10-28T04:42:13Z</time>
            </trkpt>
            <trkpt lon="99.348011" lat="13.515913">
                <ele>120.782837</ele>
                <time>2007-10-28T04:42:28Z</time>
            </trkpt>
            <trkpt lon="99.347169" lat="13.516485">
                <ele>118.379395</ele>
                <time>2007-10-28T04:42:45Z</time>
            </trkpt>
            <trkpt lon="99.346145" lat="13.517401">
                <ele>118.379395</ele>
                <time>2007-10-28T04:43:08Z</time>
            </trkpt>
            <trkpt lon="99.345287" lat="13.518193">
                <ele>119.340820</ele>
                <time>2007-10-28T04:43:30Z</time>
            </trkpt>
            <trkpt lon="99.345170" lat="13.518323">
                <ele>119.821411</ele>
                <time>2007-10-28T04:43:34Z</time>
            </trkpt>
            <trkpt lon="99.344894" lat="13.518355">
                <ele>119.821411</ele>
                <time>2007-10-28T04:43:42Z</time>
            </trkpt>
            <trkpt lon="99.344519" lat="13.518370">
                <ele>120.782837</ele>
                <time>2007-10-28T04:43:50Z</time>
            </trkpt>
            <trkpt lon="99.344345" lat="13.518204">
                <ele>121.744141</ele>
                <time>2007-10-28T04:43:56Z</time>
            </trkpt>
            <trkpt lon="99.344322" lat="13.518121">
                <ele>121.744141</ele>
                <time>2007-10-28T04:43:58Z</time>
            </trkpt>
            <trkpt lon="99.344125" lat="13.517089">
                <ele>117.898804</ele>
                <time>2007-10-28T04:44:18Z</time>
            </trkpt>
            <trkpt lon="99.343915" lat="13.516015">
                <ele>119.340820</ele>
                <time>2007-10-28T04:44:35Z</time>
            </trkpt>
            <trkpt lon="99.343787" lat="13.515179">
                <ele>116.937500</ele>
                <time>2007-10-28T04:44:48Z</time>
            </trkpt>
            <trkpt lon="99.343833" lat="13.514952">
                <ele>116.456787</ele>
                <time>2007-10-28T04:44:52Z</time>
            </trkpt>
            <trkpt lon="99.343881" lat="13.514866">
                <ele>116.456787</ele>
                <time>2007-10-28T04:44:54Z</time>
            </trkpt>
            <trkpt lon="99.344026" lat="13.514518">
                <ele>119.821411</ele>
                <time>2007-10-28T04:45:07Z</time>
            </trkpt>
            <trkpt lon="99.344298" lat="13.514512">
                <ele>124.147339</ele>
                <time>2007-10-28T04:45:18Z</time>
            </trkpt>
            <trkpt lon="99.344435" lat="13.514571">
                <ele>124.628052</ele>
                <time>2007-10-28T04:45:22Z</time>
            </trkpt>
            <trkpt lon="99.344372" lat="13.514753">
                <ele>125.108765</ele>
                <time>2007-10-28T04:45:30Z</time>
            </trkpt>
            <trkpt lon="99.344231" lat="13.514793">
                <ele>126.550659</ele>
                <time>2007-10-28T04:45:34Z</time>
            </trkpt>
            <trkpt lon="99.344103" lat="13.515054">
                <ele>127.031372</ele>
                <time>2007-10-28T04:45:43Z</time>
            </trkpt>
            <trkpt lon="99.344129" lat="13.515100">
                <ele>126.550659</ele>
                <time>2007-10-28T04:45:45Z</time>
            </trkpt>
            <trkpt lon="99.344155" lat="13.515155">
                <ele>128.954102</ele>
                <time>2007-10-28T04:46:03Z</time>
            </trkpt>
            <trkpt lon="99.344233" lat="13.515335">
                <ele>123.666748</ele>
                <time>2007-10-28T04:46:27Z</time>
            </trkpt>
            <trkpt lon="99.344319" lat="13.515376">
                <ele>123.186157</ele>
                <time>2007-10-28T04:46:39Z</time>
            </trkpt>
            <trkpt lon="99.344338" lat="13.515355">
                <ele>124.628052</ele>
                <time>2007-10-28T04:47:29Z</time>
            </trkpt>
        </trkseg>
    </trk>
</gpx>